Time;durP1;ratioP1;P1;durP2;ratioP2;P2;SDS_P1;SDS_P2;PMS_P1;PMS_P2;Temp;Humidity;BMP_temperature;BMP_pressure;BME280_temperature;BME280_humidity;BME280_pressure;Samples;Min_cycle;Max_cycle;Signal;HPM_P1;HPM_P2
2022/06/10 00:00:03;;;;;;;8.07;7.38;;;14.60;86.00;;;;;;5053651;28;20442;-70
2022/06/10 00:02:30;;;;;;;7.50;6.90;;;14.60;86.40;;;;;;5039658;28;20417;-70
2022/06/10 00:04:57;;;;;;;7.63;7.03;;;14.50;86.60;;;;;;5050074;28;20437;-70
2022/06/10 00:07:27;;;;;;;8.73;7.82;;;14.50;87.20;;;;;;5056083;28;20923;-69
2022/06/10 00:09:53;;;;;;;7.53;6.90;;;14.50;87.90;;;;;;5045032;28;20443;-69
2022/06/10 00:12:22;;;;;;;7.72;6.97;;;14.50;88.30;;;;;;5037323;28;20441;-71
2022/06/10 00:14:48;;;;;;;7.57;6.88;;;14.50;88.80;;;;;;5043056;28;20457;-71
2022/06/10 00:17:17;;;;;;;7.68;6.97;;;14.40;88.80;;;;;;5057730;28;20423;-70
2022/06/10 00:19:44;;;;;;;8.82;7.55;;;14.50;89.40;;;;;;5048027;28;20436;-70
2022/06/10 00:22:11;;;;;;;7.65;7.05;;;14.50;89.20;;;;;;5059790;28;20507;-71
2022/06/10 00:24:38;;;;;;;7.65;7.15;;;14.40;88.90;;;;;;5063876;28;21202;-69
2022/06/10 00:27:05;;;;;;;8.25;7.50;;;14.40;89.30;;;;;;5047147;28;20430;-70
2022/06/10 00:29:33;;;;;;;11.70;7.70;;;14.40;89.80;;;;;;5038508;28;20902;-70
2022/06/10 00:32:00;;;;;;;8.53;7.73;;;14.40;90.00;;;;;;5057300;28;20513;-70
2022/06/10 00:34:27;;;;;;;8.20;7.40;;;14.30;90.00;;;;;;5052502;28;20428;-72
2022/06/10 00:36:54;;;;;;;7.80;7.30;;;14.30;90.20;;;;;;5055420;28;20463;-70
2022/06/10 00:39:21;;;;;;;7.85;7.15;;;14.20;90.30;;;;;;5037789;28;20431;-71
2022/06/10 00:41:48;;;;;;;8.25;7.55;;;14.20;90.20;;;;;;5040111;28;20532;-72
2022/06/10 00:44:37;;;;;;;8.13;7.40;;;14.10;90.10;;;;;;5033959;28;20427;-70
2022/06/10 00:47:06;;;;;;;8.98;7.00;;;14.10;90.10;;;;;;5047026;28;20434;-72
2022/06/10 00:49:33;;;;;;;7.38;6.68;;;14.00;90.10;;;;;;5048094;28;20504;-70
2022/06/10 00:52:00;;;;;;;7.35;6.75;;;14.00;89.30;;;;;;5053305;28;20803;-72
2022/06/10 00:54:31;;;;;;;7.47;6.77;;;14.00;89.60;;;;;;5036500;28;20524;-71
2022/06/10 00:57:03;;;;;;;7.38;6.80;;;13.90;89.40;;;;;;5053027;28;20438;-70
2022/06/10 00:59:36;;;;;;;7.68;6.97;;;13.90;89.60;;;;;;5037894;28;20419;-70
2022/06/10 01:02:09;;;;;;;7.50;6.80;;;13.90;89.80;;;;;;5052750;28;20430;-69
2022/06/10 01:04:39;;;;;;;8.05;7.25;;;13.90;89.70;;;;;;5035801;28;20432;-70
2022/06/10 01:07:06;;;;;;;7.25;6.63;;;13.80;90.00;;;;;;5050873;28;20431;-71
2022/06/10 01:09:34;;;;;;;7.80;7.00;;;13.80;90.10;;;;;;5042425;28;20430;-70
2022/06/10 01:12:30;;;;;;;7.55;6.95;;;13.70;90.10;;;;;;5036756;28;20430;-73
2022/06/10 01:15:23;;;;;;;7.55;6.97;;;13.70;90.10;;;;;;5052069;28;20427;-70
2022/06/10 01:18:10;;;;;;;8.02;7.25;;;13.70;90.20;;;;;;5043201;28;20978;-70
2022/06/10 01:20:45;;;;;;;8.50;7.70;;;13.70;90.20;;;;;;5038520;28;20507;-71
2022/06/10 01:23:52;;;;;;;7.45;6.80;;;13.60;90.40;;;;;;5035128;28;20421;-69
2022/06/10 01:29:55;;;;;;;7.80;7.20;;;13.50;91.00;;;;;;5050292;28;20447;-71
2022/06/10 01:32:30;;;;;;;7.50;7.00;;;13.60;91.10;;;;;;5045253;28;21132;-71
2022/06/10 01:35:08;;;;;;;8.45;7.75;;;13.50;91.00;;;;;;5038738;28;20433;-71
2022/06/10 01:37:40;;;;;;;7.82;7.22;;;13.50;91.10;;;;;;5051288;28;20452;-69
2022/06/10 01:40:19;;;;;;;7.90;7.20;;;13.50;91.10;;;;;;5052346;28;20928;-71
2022/06/10 01:42:52;;;;;;;7.70;7.00;;;13.50;91.10;;;;;;5047863;28;20915;-68
2022/06/10 01:45:26;;;;;;;7.97;7.38;;;13.50;91.20;;;;;;5049928;28;20433;-68
2022/06/10 01:48:01;;;;;;;8.70;7.90;;;13.50;91.20;;;;;;5046043;28;20823;-69
2022/06/10 01:50:35;;;;;;;8.65;7.72;;;13.50;91.30;;;;;;5040534;28;20430;-69
2022/06/10 01:53:07;;;;;;;8.20;7.60;;;13.50;91.30;;;;;;5038439;28;20447;-68
2022/06/10 01:55:40;;;;;;;8.10;7.40;;;13.40;91.20;;;;;;5061829;28;20519;-69
2022/06/10 01:58:11;;;;;;;8.20;7.40;;;13.40;91.20;;;;;;5034812;28;20433;-69
2022/06/10 02:00:42;;;;;;;7.70;7.10;;;13.40;91.40;;;;;;5037766;28;20907;-68
2022/06/10 02:03:16;;;;;;;8.23;7.53;;;13.40;91.40;;;;;;5042081;28;20435;-69
2022/06/10 02:05:47;;;;;;;8.38;7.68;;;13.30;91.40;;;;;;5044737;28;20441;-71
2022/06/10 02:08:18;;;;;;;8.05;7.45;;;13.30;91.50;;;;;;5037951;28;20433;-68
2022/06/10 02:10:49;;;;;;;8.40;7.80;;;13.30;91.60;;;;;;5043343;28;21002;-71
2022/06/10 02:13:22;;;;;;;7.88;7.18;;;13.20;91.70;;;;;;5042897;28;20516;-70
2022/06/10 02:15:52;;;;;;;8.20;7.60;;;13.20;91.70;;;;;;5050496;28;20435;-71
2022/06/10 02:18:28;;;;;;;8.88;7.97;;;13.20;91.70;;;;;;5048302;28;20448;-69
2022/06/10 02:21:01;;;;;;;8.03;7.43;;;13.20;91.70;;;;;;5034586;28;20843;-70
2022/06/10 02:23:33;;;;;;;7.70;7.10;;;13.20;91.80;;;;;;5043002;28;20431;-70
2022/06/10 02:26:03;;;;;;;8.23;7.53;;;13.20;91.70;;;;;;5038392;28;20435;-69
2022/06/10 02:28:35;;;;;;;7.90;7.30;;;13.10;91.70;;;;;;5048697;28;20915;-69
2022/06/10 02:31:06;;;;;;;8.20;7.40;;;13.10;91.80;;;;;;5050288;28;20443;-70
2022/06/10 02:33:34;;;;;;;8.07;7.40;;;13.10;92.20;;;;;;5039157;28;20487;-72
2022/06/10 02:36:14;;;;;;;8.48;7.78;;;13.10;91.70;;;;;;5040296;28;20437;-70
2022/06/10 02:38:53;;;;;;;8.20;7.60;;;13.10;91.80;;;;;;5045027;28;20437;-70
2022/06/10 02:41:29;;;;;;;8.87;8.20;;;13.00;91.70;;;;;;5039543;28;20437;-71
2022/06/10 02:44:05;;;;;;;7.97;7.38;;;13.00;91.70;;;;;;5048997;28;20524;-72
2022/06/10 02:46:42;;;;;;;8.20;7.50;;;13.00;91.70;;;;;;5038442;28;20433;-73
2022/06/10 02:49:12;;;;;;;8.02;7.40;;;13.00;91.70;;;;;;5033368;28;20456;-73
2022/06/10 02:51:40;;;;;;;8.73;8.13;;;13.00;91.70;;;;;;5039368;28;20912;-71
2022/06/10 02:54:11;;;;;;;8.70;7.90;;;13.00;91.80;;;;;;5043799;28;20444;-70
2022/06/10 02:56:38;;;;;;;8.40;7.80;;;13.00;91.80;;;;;;5058149;28;20423;-71
2022/06/10 03:02:12;;;;;;;8.40;7.80;;;12.90;92.00;;;;;;5040029;28;20957;-70
2022/06/10 03:04:49;;;;;;;9.00;8.30;;;12.90;92.10;;;;;;5044174;28;20448;-71
2022/06/10 03:07:27;;;;;;;8.45;7.80;;;12.80;92.20;;;;;;5042703;28;20931;-70
2022/06/10 03:10:09;;;;;;;9.10;8.30;;;12.80;92.30;;;;;;5018124;28;20442;-73
2022/06/10 03:12:43;;;;;;;8.20;7.60;;;12.90;92.20;;;;;;5019406;28;20427;-71
2022/06/10 03:15:24;;;;;;;8.07;7.40;;;12.80;92.20;;;;;;5030094;28;20443;-71
2022/06/10 03:18:02;;;;;;;9.02;8.10;;;12.80;92.20;;;;;;5041006;28;20446;-70
2022/06/10 03:20:38;;;;;;;8.20;7.60;;;12.80;92.20;;;;;;5031240;28;20429;-70
2022/06/10 03:23:17;;;;;;;8.20;7.57;;;12.80;92.30;;;;;;5039050;28;21239;-71
2022/06/10 03:25:49;;;;;;;9.20;8.40;;;12.80;92.10;;;;;;5040210;28;20429;-71
2022/06/10 03:28:24;;;;;;;8.43;7.80;;;12.80;92.20;;;;;;5033509;28;20425;-69
2022/06/10 03:30:56;;;;;;;9.27;8.38;;;12.80;92.20;;;;;;5039627;28;20834;-69
2022/06/10 03:33:28;;;;;;;8.60;7.80;;;12.70;92.20;;;;;;5036569;28;22190;-69
2022/06/10 03:36:01;;;;;;;8.05;7.55;;;12.70;92.20;;;;;;5038036;28;20433;-70
2022/06/10 03:38:29;;;;;;;8.40;7.70;;;12.70;92.00;;;;;;5040306;28;20429;-74
2022/06/10 03:40:58;;;;;;;8.70;8.10;;;12.70;91.90;;;;;;5032138;28;20427;-69
2022/06/10 03:43:25;;;;;;;8.43;7.82;;;12.70;91.90;;;;;;5033314;28;20426;-71
2022/06/10 03:46:00;;;;;;;10.93;8.00;;;12.60;92.10;;;;;;5032963;28;20935;-70
2022/06/10 03:48:29;;;;;;;8.80;8.20;;;12.70;92.10;;;;;;5036850;28;20430;-69
2022/06/10 03:50:57;;;;;;;8.50;7.80;;;12.70;92.10;;;;;;5022290;28;20781;-71
2022/06/10 03:53:26;;;;;;;8.77;7.87;;;12.70;92.10;;;;;;5031223;28;20522;-71
2022/06/10 03:55:53;;;;;;;8.70;8.00;;;12.60;92.10;;;;;;5027110;28;20484;-70
2022/06/10 03:58:20;;;;;;;8.80;8.10;;;12.60;92.20;;;;;;5029033;28;20427;-71
2022/06/10 04:00:48;;;;;;;8.50;7.80;;;12.60;92.20;;;;;;5026998;28;20945;-72
2022/06/10 04:03:15;;;;;;;9.23;8.30;;;12.70;92.30;;;;;;5023090;28;21015;-73
2022/06/10 04:05:41;;;;;;;8.70;8.00;;;12.60;92.30;;;;;;5027409;28;21085;-72
2022/06/10 04:08:10;;;;;;;8.40;7.80;;;12.70;92.40;;;;;;5019990;28;20513;-70
2022/06/10 04:10:37;;;;;;;8.95;8.15;;;12.70;92.20;;;;;;5035683;28;20425;-72
2022/06/10 04:13:04;;;;;;;8.55;7.82;;;12.70;92.20;;;;;;5037003;28;20423;-69
2022/06/10 04:15:32;;;;;;;8.43;7.72;;;12.60;92.30;;;;;;5031737;28;20436;-70
2022/06/10 04:17:59;;;;;;;9.13;8.27;;;12.70;92.30;;;;;;5033288;28;20425;-71
2022/06/10 04:20:29;;;;;;;9.00;8.20;;;12.70;92.40;;;;;;5038785;28;20436;-72
2022/06/10 04:22:56;;;;;;;8.45;7.75;;;12.70;92.50;;;;;;5043520;28;20918;-69
2022/06/10 04:25:25;;;;;;;8.30;7.60;;;12.70;92.40;;;;;;5048990;28;20467;-72
2022/06/10 04:27:52;;;;;;;8.98;8.18;;;12.70;92.50;;;;;;5042910;28;20796;-72
2022/06/10 04:30:27;;;;;;;8.25;7.55;;;12.70;92.30;;;;;;5044962;28;20429;-68
2022/06/10 04:32:55;;;;;;;8.70;7.90;;;12.80;92.50;;;;;;5036484;28;20431;-71
2022/06/10 04:35:22;;;;;;;7.90;7.13;;;12.80;91.80;;;;;;5036608;28;20441;-73
2022/06/10 04:37:50;;;;;;;8.17;7.40;;;12.90;91.70;;;;;;5031746;28;20890;-69
2022/06/10 04:40:20;;;;;;;7.90;7.20;;;12.90;91.60;;;;;;5028175;28;20441;-70
2022/06/10 04:42:50;;;;;;;7.18;6.57;;;12.90;91.60;;;;;;5036562;28;20430;-70
2022/06/10 04:45:20;;;;;;;8.10;7.50;;;13.00;91.30;;;;;;5033011;28;20428;-70
2022/06/10 04:47:47;;;;;;;7.80;7.10;;;13.00;91.40;;;;;;5035006;28;20523;-70
2022/06/10 04:50:17;;;;;;;9.10;8.00;;;13.10;91.40;;;;;;5030347;28;20426;-71
2022/06/10 04:52:43;;;;;;;7.75;7.15;;;13.10;91.40;;;;;;5032271;28;20431;-70
2022/06/10 04:55:11;;;;;;;7.95;7.35;;;13.20;91.00;;;;;;5032810;28;20566;-72
2022/06/10 04:57:38;;;;;;;7.68;7.00;;;13.20;90.90;;;;;;5033037;28;20446;-72
2022/06/10 05:00:15;;;;;;;7.55;6.90;;;13.20;90.90;;;;;;5032162;28;20471;-69
2022/06/10 05:02:42;;;;;;;7.57;6.82;;;13.30;90.80;;;;;;5027052;28;22136;-72
2022/06/10 05:05:09;;;;;;;7.60;6.90;;;13.40;90.70;;;;;;5026713;28;20511;-70
2022/06/10 05:07:36;;;;;;;7.63;6.93;;;13.50;90.40;;;;;;5035468;28;21815;-70
2022/06/10 05:10:04;;;;;;;8.93;7.20;;;13.60;89.80;;;;;;5036472;28;20441;-70
2022/06/10 05:12:31;;;;;;;7.70;7.10;;;13.60;89.60;;;;;;5034160;28;20427;-70
2022/06/10 05:14:57;;;;;;;8.00;7.30;;;13.70;89.20;;;;;;5034393;28;20432;-70
2022/06/10 05:17:26;;;;;;;7.47;6.90;;;13.70;89.70;;;;;;5029503;28;20441;-71
2022/06/10 05:19:52;;;;;;;7.00;6.35;;;13.70;89.70;;;;;;5032826;28;20442;-69
2022/06/10 05:22:19;;;;;;;7.25;6.65;;;13.70;88.40;;;;;;5032673;28;20433;-72
2022/06/10 05:24:46;;;;;;;7.53;6.43;;;13.70;88.70;;;;;;5034722;28;20518;-70
2022/06/10 05:27:13;;;;;;;6.97;6.28;;;13.80;88.30;;;;;;5030320;28;20509;-76
2022/06/10 05:29:40;;;;;;;6.60;6.00;;;13.70;88.20;;;;;;5024634;28;20453;-71
2022/06/10 05:32:08;;;;;;;6.40;5.80;;;13.80;88.30;;;;;;5017018;28;20429;-72
2022/06/10 05:34:46;;;;;;;6.60;5.90;;;13.80;88.40;;;;;;5027874;28;20445;-71
2022/06/10 05:37:13;;;;;;;7.10;5.60;;;14.00;88.10;;;;;;5026535;28;20509;-74
2022/06/10 05:39:40;;;;;;;6.10;5.40;;;14.10;88.00;;;;;;5040531;28;20434;-70
2022/06/10 05:42:09;;;;;;;7.40;5.68;;;14.20;86.60;;;;;;5039676;28;20437;-70
2022/06/10 05:44:38;;;;;;;6.13;4.82;;;14.40;85.80;;;;;;5034750;28;20426;-70
2022/06/10 05:47:07;;;;;;;6.22;5.05;;;14.50;85.20;;;;;;5037841;28;20530;-70
2022/06/10 05:49:36;;;;;;;5.93;5.10;;;14.70;84.40;;;;;;5040162;28;20492;-71
2022/06/10 05:52:06;;;;;;;5.63;5.13;;;14.80;83.40;;;;;;5045064;28;20421;-71
2022/06/10 05:54:33;;;;;;;5.82;4.97;;;15.00;83.00;;;;;;5032470;28;20431;-72
2022/06/10 05:57:00;;;;;;;6.15;5.15;;;15.00;82.90;;;;;;5034046;28;20519;-71
2022/06/10 05:59:29;;;;;;;6.50;5.10;;;15.10;82.50;;;;;;5034578;28;20441;-70
2022/06/10 06:01:56;;;;;;;5.10;4.65;;;15.10;81.40;;;;;;5029898;28;20438;-71
2022/06/10 06:04:23;;;;;;;5.20;4.70;;;15.20;81.90;;;;;;5030892;28;20449;-70
2022/06/10 06:06:51;;;;;;;5.80;4.30;;;15.30;81.20;;;;;;5036590;28;20526;-71
2022/06/10 06:09:19;;;;;;;6.20;5.20;;;15.30;80.90;;;;;;5040036;28;20429;-70
2022/06/10 06:11:47;;;;;;;4.90;4.40;;;15.40;81.10;;;;;;5034369;28;20487;-71
2022/06/10 06:14:15;;;;;;;5.32;4.47;;;15.40;80.00;;;;;;5032126;28;20782;-71
2022/06/10 06:16:43;;;;;;;5.97;5.00;;;15.50;80.40;;;;;;5028399;28;20435;-70
2022/06/10 06:19:10;;;;;;;5.65;4.10;;;15.50;79.90;;;;;;5028433;28;20556;-70
2022/06/10 06:21:37;;;;;;;4.90;4.40;;;15.50;79.60;;;;;;5028385;28;20433;-71
2022/06/10 06:24:06;;;;;;;5.78;4.40;;;15.50;79.80;;;;;;5034920;28;20438;-72
2022/06/10 06:26:33;;;;;;;5.63;4.65;;;15.50;79.80;;;;;;5032036;28;20439;-70
2022/06/10 06:28:59;;;;;;;5.03;4.53;;;15.50;80.50;;;;;;5031801;28;20441;-70
2022/06/10 06:31:26;;;;;;;5.30;4.13;;;15.50;80.60;;;;;;5028725;28;20442;-72
2022/06/10 06:33:53;;;;;;;5.80;4.20;;;15.60;80.40;;;;;;5043062;28;20517;-71
2022/06/10 06:36:23;;;;;;;4.67;4.20;;;15.60;80.40;;;;;;5034512;28;20425;-71
2022/06/10 06:38:51;;;;;;;5.40;4.60;;;15.70;80.10;;;;;;5028010;28;20431;-70
2022/06/10 06:41:21;;;;;;;5.20;4.70;;;15.80;79.30;;;;;;5033767;28;21110;-70
2022/06/10 06:43:48;;;;;;;5.10;4.65;;;15.90;79.60;;;;;;5035779;28;20433;-70
2022/06/10 06:46:18;;;;;;;6.00;4.17;;;15.90;79.00;;;;;;5030478;28;20432;-72
2022/06/10 06:48:45;;;;;;;5.07;4.20;;;16.00;79.30;;;;;;5030774;28;20809;-70
2022/06/10 06:51:13;;;;;;;4.90;4.25;;;16.10;79.40;;;;;;5032832;28;20437;-72
2022/06/10 06:53:40;;;;;;;4.60;4.20;;;16.20;79.40;;;;;;5037138;28;20514;-70
2022/06/10 06:56:07;;;;;;;5.35;4.57;;;16.30;78.60;;;;;;5036289;28;20457;-71
2022/06/10 06:58:35;;;;;;;5.07;4.57;;;16.40;77.80;;;;;;5037100;28;20429;-65
2022/06/10 07:01:02;;;;;;;5.20;3.95;;;16.50;77.40;;;;;;5039567;28;20441;-66
2022/06/10 07:03:29;;;;;;;5.20;4.30;;;16.70;76.80;;;;;;5022560;28;20471;-64
2022/06/10 07:05:56;;;;;;;5.00;4.30;;;16.80;76.70;;;;;;5030443;28;20429;-65
2022/06/10 07:08:31;;;;;;;4.40;4.00;;;16.90;75.70;;;;;;5031837;28;20433;-67
2022/06/10 07:10:58;;;;;;;7.90;3.85;;;16.90;75.00;;;;;;5032134;28;20431;-74
2022/06/10 07:13:25;;;;;;;5.88;4.30;;;16.90;75.30;;;;;;5031210;28;20422;-72
2022/06/10 07:15:53;;;;;;;5.00;4.10;;;17.00;74.80;;;;;;5032454;28;20559;-72
2022/06/10 07:18:21;;;;;;;4.40;4.00;;;17.00;75.00;;;;;;5031582;28;20439;-74
2022/06/10 07:20:48;;;;;;;5.28;3.83;;;17.00;74.40;;;;;;5031160;28;20995;-73
2022/06/10 07:23:15;;;;;;;4.72;3.97;;;17.10;75.00;;;;;;5037289;28;20431;-73
2022/06/10 07:25:43;;;;;;;4.30;3.80;;;17.10;74.70;;;;;;5042652;28;20420;-73
2022/06/10 07:28:11;;;;;;;5.68;4.13;;;17.20;74.70;;;;;;5035821;28;20433;-73
2022/06/10 07:30:39;;;;;;;5.65;4.10;;;17.30;73.80;;;;;;5030686;28;21011;-74
2022/06/10 07:33:08;;;;;;;5.40;4.00;;;17.50;73.10;;;;;;5033235;28;20449;-74
2022/06/10 07:35:35;;;;;;;5.97;3.80;;;17.50;73.30;;;;;;5031023;28;20423;-72
2022/06/10 07:38:03;;;;;;;6.90;3.92;;;17.50;72.50;;;;;;5031673;28;20438;-73
2022/06/10 07:43:19;;;;;;;4.73;4.20;;;17.50;73.00;;;;;;5039763;28;20586;-73
2022/06/10 07:45:46;;;;;;;5.65;4.40;;;17.50;73.50;;;;;;5032059;28;20513;-74
2022/06/10 07:48:15;;;;;;;4.83;4.30;;;17.60;72.80;;;;;;5029339;28;20509;-76
2022/06/10 07:50:43;;;;;;;6.10;4.50;;;17.70;72.10;;;;;;5034276;28;20423;-74
2022/06/10 07:53:10;;;;;;;6.50;3.60;;;17.70;72.40;;;;;;5044665;28;20503;-75
2022/06/10 07:55:37;;;;;;;5.38;4.38;;;17.90;71.90;;;;;;5032469;28;20431;-74
2022/06/10 07:58:05;;;;;;;5.65;3.45;;;18.10;71.50;;;;;;5031414;28;20442;-73
2022/06/10 08:00:34;;;;;;;5.25;3.60;;;18.30;69.00;;;;;;5040500;28;20425;-74
2022/06/10 08:03:01;;;;;;;7.10;3.33;;;18.60;68.20;;;;;;5027398;28;20430;-75
2022/06/10 08:05:30;;;;;;;4.63;2.97;;;19.10;67.80;;;;;;5032559;28;20421;-74
2022/06/10 08:07:57;;;;;;;4.45;3.15;;;19.60;66.00;;;;;;5032633;28;20448;-72
2022/06/10 08:10:27;;;;;;;4.30;2.90;;;20.00;63.10;;;;;;5028399;28;20722;-75
2022/06/10 08:12:55;;;;;;;4.57;2.97;;;20.30;62.10;;;;;;5034546;28;20437;-76
2022/06/10 08:15:23;;;;;;;5.78;2.85;;;20.40;60.40;;;;;;5036766;28;20523;-76
2022/06/10 08:17:51;;;;;;;5.85;2.70;;;20.50;61.00;;;;;;5030177;28;20434;-75
2022/06/10 08:20:20;;;;;;;4.47;2.60;;;20.60;61.50;;;;;;5031385;28;20430;-76
2022/06/10 08:22:47;;;;;;;4.88;2.53;;;20.70;59.40;;;;;;5037506;28;20969;-76
2022/06/10 08:25:14;;;;;;;5.68;2.75;;;20.70;58.50;;;;;;5034481;28;20928;-75
2022/06/10 08:27:42;;;;;;;4.80;2.97;;;20.80;59.10;;;;;;5032907;28;20433;-75
2022/06/10 08:30:16;;;;;;;4.13;3.00;;;21.00;58.00;;;;;;5032074;28;20445;-75
2022/06/10 08:32:43;;;;;;;4.20;2.90;;;21.00;59.10;;;;;;5030716;28;20438;-75
2022/06/10 08:35:09;;;;;;;5.13;2.63;;;21.00;59.00;;;;;;5033770;28;20443;-76
2022/06/10 08:37:36;;;;;;;4.70;2.20;;;21.10;57.50;;;;;;5030811;28;20430;-78
2022/06/10 08:40:06;;;;;;;4.83;2.40;;;21.10;55.70;;;;;;5027300;28;20525;-77
2022/06/10 08:42:39;;;;;;;4.07;2.30;;;21.10;57.00;;;;;;5034132;28;20437;-75
2022/06/10 08:45:17;;;;;;;3.55;1.88;;;21.20;55.00;;;;;;5036021;28;20429;-68
2022/06/10 08:47:59;;;;;;;4.07;1.90;;;21.30;54.70;;;;;;5030249;28;20428;-77
2022/06/10 08:50:44;;;;;;;4.53;1.80;;;21.20;52.20;;;;;;5028207;28;20585;-78
2022/06/10 08:53:28;;;;;;;5.32;2.00;;;20.90;55.00;;;;;;5033082;28;20457;-76
2022/06/10 08:56:05;;;;;;;4.68;2.00;;;21.10;54.40;;;;;;5024095;28;20679;-78
2022/06/10 08:58:38;;;;;;;4.55;2.10;;;21.20;53.80;;;;;;5031763;28;20524;-76
2022/06/10 09:01:08;;;;;;;4.03;1.63;;;21.20;53.30;;;;;;5038078;28;20509;-76
2022/06/10 09:03:41;;;;;;;3.53;1.67;;;21.20;54.10;;;;;;5030116;28;20444;-77
2022/06/10 09:06:14;;;;;;;3.80;2.00;;;21.30;53.00;;;;;;5024856;28;20446;-76
2022/06/10 09:08:44;;;;;;;4.82;1.80;;;21.70;53.60;;;;;;5030537;28;20518;-78
2022/06/10 09:11:20;;;;;;;5.18;1.70;;;22.10;52.80;;;;;;5021914;28;20452;-76
2022/06/10 09:13:51;;;;;;;5.38;2.08;;;22.20;52.10;;;;;;5025249;28;20439;-76
2022/06/10 09:16:24;;;;;;;4.93;1.92;;;21.90;49.60;;;;;;5028953;28;20433;-76
2022/06/10 09:19:03;;;;;;;3.63;1.83;;;21.10;51.10;;;;;;5027928;28;20810;-75
2022/06/10 09:21:37;;;;;;;5.50;1.90;;;20.60;53.00;;;;;;5030114;28;20512;-76
2022/06/10 09:24:11;;;;;;;4.50;1.60;;;20.30;53.90;;;;;;5039325;28;20525;-77
2022/06/10 09:26:43;;;;;;;3.80;1.90;;;20.30;54.90;;;;;;5033672;28;20442;-77
2022/06/10 09:29:12;;;;;;;4.05;1.70;;;20.50;54.00;;;;;;5034295;28;20434;-76
2022/06/10 09:31:41;;;;;;;3.60;1.55;;;20.80;54.50;;;;;;5038657;28;20431;-79
2022/06/10 09:34:30;;;;;;;4.10;1.42;;;21.50;52.50;;;;;;5040217;28;20432;-78
2022/06/10 09:37:04;;;;;;;3.50;1.60;;;22.20;50.10;;;;;;5037321;28;20454;-77
2022/06/10 09:42:38;;;;;;;3.58;1.50;;;21.70;52.10;;;;;;5027110;28;20490;-77
2022/06/10 09:45:14;;;;;;;3.70;1.50;;;21.60;53.10;;;;;;5027455;28;20425;-75
2022/06/10 09:47:55;;;;;;;4.38;2.40;;;21.40;52.90;;;;;;5035640;28;21224;-77
2022/06/10 09:50:32;;;;;;;4.53;1.90;;;21.20;54.00;;;;;;5046103;28;20425;-75
2022/06/10 09:53:17;;;;;;;5.15;1.80;;;21.30;54.50;;;;;;5037098;28;20437;-78
2022/06/10 09:55:57;;;;;;;4.82;2.20;;;21.20;53.90;;;;;;5037378;28;20520;-76
2022/06/10 09:58:42;;;;;;;4.60;1.80;;;21.20;55.30;;;;;;5039049;28;20422;-77
2022/06/10 10:01:19;;;;;;;3.95;1.67;;;21.10;55.00;;;;;;5042904;28;20516;-76
2022/06/10 10:04:12;;;;;;;5.10;1.73;;;21.30;56.90;;;;;;5037414;28;20438;-79
2022/06/10 10:06:47;;;;;;;3.50;1.70;;;21.60;54.50;;;;;;5023999;28;20565;-78
2022/06/10 10:09:25;;;;;;;3.33;1.60;;;21.90;55.20;;;;;;5030681;28;20514;-77
2022/06/10 10:12:11;;;;;;;3.88;1.38;;;22.10;53.20;;;;;;5038734;28;20434;-79
2022/06/10 10:14:47;;;;;;;3.10;1.60;;;22.20;51.90;;;;;;5033297;28;20565;-77
2022/06/10 10:17:33;;;;;;;6.47;2.35;;;21.80;52.80;;;;;;5032474;28;20431;-77
2022/06/10 10:20:08;;;;;;;2.40;1.30;;;22.00;53.70;;;;;;5040331;28;20435;-77
2022/06/10 10:22:51;;;;;;;3.05;1.20;;;22.20;52.10;;;;;;5034457;28;20799;-77
2022/06/10 10:25:20;;;;;;;4.70;1.70;;;21.80;52.50;;;;;;5034282;28;20434;-76
2022/06/10 10:27:48;;;;;;;2.78;1.42;;;21.50;53.60;;;;;;5033131;28;20437;-77
2022/06/10 10:30:21;;;;;;;3.83;1.57;;;21.70;54.20;;;;;;5034946;28;20431;-79
2022/06/10 10:32:54;;;;;;;5.05;1.70;;;21.70;54.50;;;;;;5031581;28;20431;-75
2022/06/10 10:35:23;;;;;;;4.50;1.42;;;21.40;54.30;;;;;;5032468;28;20427;-77
2022/06/10 10:37:58;;;;;;;3.08;1.52;;;21.20;54.30;;;;;;5032134;28;20526;-75
2022/06/10 10:40:35;;;;;;;3.17;1.60;;;21.30;56.40;;;;;;5035065;28;20434;-76
2022/06/10 10:43:07;;;;;;;5.80;1.50;;;21.50;54.70;;;;;;5034730;28;20445;-77
2022/06/10 10:45:38;;;;;;;3.60;1.63;;;21.60;55.30;;;;;;5037822;28;20480;-76
2022/06/10 10:48:19;;;;;;;3.47;1.30;;;21.80;53.20;;;;;;5034775;28;20433;-77
2022/06/10 10:50:55;;;;;;;4.43;1.30;;;21.80;53.30;;;;;;5034996;28;20429;-76
2022/06/10 10:53:26;;;;;;;2.50;1.20;;;21.80;53.10;;;;;;5027642;28;20439;-75
2022/06/10 10:55:56;;;;;;;2.63;1.10;;;21.80;54.80;;;;;;5033562;28;20984;-79
2022/06/10 10:58:28;;;;;;;4.47;1.30;;;21.80;53.10;;;;;;5031064;28;20435;-77
2022/06/10 11:00:59;;;;;;;2.03;1.10;;;21.90;54.90;;;;;;5027428;28;20949;-77
2022/06/10 11:03:29;;;;;;;3.30;1.23;;;22.00;54.00;;;;;;5032805;28;20855;-76
2022/06/10 11:05:58;;;;;;;2.08;1.30;;;22.00;52.40;;;;;;5008385;28;20559;-74
2022/06/10 11:08:30;;;;;;;1.85;0.90;;;22.10;53.20;;;;;;5031505;28;20419;-73
2022/06/10 11:11:21;;;;;;;2.67;1.10;;;22.30;53.30;;;;;;5038026;28;20444;-74
2022/06/10 11:13:52;;;;;;;2.85;1.00;;;22.50;51.10;;;;;;5026687;28;20472;-74
2022/06/10 11:16:42;;;;;;;2.28;1.10;;;22.50;52.10;;;;;;5032469;28;20438;-76
2022/06/10 11:19:25;;;;;;;1.75;0.80;;;22.60;51.70;;;;;;5032551;28;20503;-76
2022/06/10 11:21:55;;;;;;;2.88;0.93;;;22.80;51.20;;;;;;5031412;28;20442;-74
2022/06/10 11:24:27;;;;;;;2.15;1.13;;;23.00;49.30;;;;;;5034126;28;20433;-73
2022/06/10 11:26:58;;;;;;;2.45;1.20;;;23.30;47.20;;;;;;5035690;28;20449;-73
2022/06/10 11:29:25;;;;;;;1.90;0.90;;;23.20;48.70;;;;;;5038653;28;20425;-75
2022/06/10 11:31:57;;;;;;;2.00;1.00;;;23.00;48.00;;;;;;5040061;28;20434;-73
2022/06/10 11:34:30;;;;;;;1.60;1.00;;;22.90;49.90;;;;;;5044023;28;20495;-74
2022/06/10 11:36:58;;;;;;;2.55;1.20;;;22.90;49.40;;;;;;5052758;28;20465;-74
2022/06/10 11:39:28;;;;;;;2.37;1.00;;;22.90;49.20;;;;;;5050125;28;20417;-74
2022/06/10 11:42:07;;;;;;;1.60;0.80;;;22.90;49.90;;;;;;5040240;28;20429;-75
2022/06/10 11:44:38;;;;;;;1.20;0.73;;;22.80;49.00;;;;;;5041406;28;20504;-74
2022/06/10 11:47:14;;;;;;;2.08;1.00;;;22.60;50.40;;;;;;5041189;28;20464;-75
2022/06/10 11:49:48;;;;;;;1.90;0.90;;;22.60;50.50;;;;;;5033166;28;20434;-75
2022/06/10 11:52:23;;;;;;;1.40;0.52;;;22.80;49.70;;;;;;5028293;28;20525;-77
2022/06/10 11:54:56;;;;;;;2.55;0.63;;;22.80;49.60;;;;;;5033577;28;20431;-74
2022/06/10 12:00:21;;;;;;;1.42;0.77;;;22.90;50.30;;;;;;5034121;28;20421;-75
2022/06/10 12:03:00;;;;;;;2.70;1.20;;;23.10;50.10;;;;;;5029864;28;20870;-75
2022/06/10 12:05:36;;;;;;;1.55;0.80;;;23.10;50.00;;;;;;5030894;28;20430;-73
2022/06/10 12:08:10;;;;;;;2.63;0.80;;;23.40;48.40;;;;;;5028299;28;20442;-74
2022/06/10 12:10:44;;;;;;;1.80;0.60;;;23.40;48.40;;;;;;5034734;28;20470;-76
2022/06/10 12:13:13;;;;;;;1.35;0.60;;;23.60;48.20;;;;;;5029180;28;20421;-76
2022/06/10 12:15:47;;;;;;;1.88;0.70;;;23.90;49.40;;;;;;5037785;28;20440;-75
2022/06/10 12:18:17;;;;;;;1.70;0.70;;;24.20;46.30;;;;;;5037548;28;20852;-73
2022/06/10 12:20:48;;;;;;;2.60;0.90;;;24.40;47.00;;;;;;5028630;28;20438;-67
2022/06/10 12:23:20;;;;;;;0.95;0.60;;;24.70;46.60;;;;;;5038869;28;20524;-68
2022/06/10 12:26:02;;;;;;;1.23;0.55;;;24.70;44.30;;;;;;5048516;28;20486;-68
2022/06/10 12:28:38;;;;;;;2.00;0.80;;;24.40;46.70;;;;;;5055945;28;20916;-66
2022/06/10 12:31:18;;;;;;;2.60;0.95;;;24.40;45.20;;;;;;5051511;28;20497;-68
2022/06/10 12:33:52;;;;;;;2.00;0.90;;;23.80;46.40;;;;;;5046277;28;20421;-67
2022/06/10 12:36:27;;;;;;;2.95;0.93;;;23.90;47.30;;;;;;5039561;28;20428;-74
2022/06/10 12:38:54;;;;;;;1.35;0.80;;;23.70;46.50;;;;;;5035889;28;20457;-74
2022/06/10 12:41:32;;;;;;;2.50;1.10;;;23.80;47.00;;;;;;5031829;28;20526;-76
2022/06/10 12:44:03;;;;;;;1.60;1.10;;;24.30;47.30;;;;;;5037285;28;20418;-78
2022/06/10 12:46:40;;;;;;;1.70;1.00;;;24.90;47.40;;;;;;5030863;28;20470;-74
2022/06/10 12:49:17;;;;;;;2.95;0.95;;;25.30;45.20;;;;;;5032540;28;20442;-74
2022/06/10 12:51:55;;;;;;;3.50;1.10;;;25.50;43.50;;;;;;5031503;28;20476;-74
2022/06/10 12:54:29;;;;;;;2.00;0.80;;;25.60;42.90;;;;;;5039502;28;20432;-75
2022/06/10 12:57:42;;;;;;;2.55;1.00;;;25.60;44.30;;;;;;5037550;28;20433;-77
2022/06/10 13:00:28;;;;;;;2.47;0.90;;;25.80;44.00;;;;;;4999919;28;20512;-75
2022/06/10 13:02:57;;;;;;;1.75;0.73;;;25.70;43.00;;;;;;5044774;28;20955;-78
2022/06/10 13:05:28;;;;;;;1.30;1.00;;;25.80;44.30;;;;;;5038739;28;20466;-73
2022/06/10 13:07:56;;;;;;;1.15;0.65;;;25.90;44.60;;;;;;5039634;28;20443;-78
2022/06/10 13:10:47;;;;;;;2.50;0.90;;;25.80;43.30;;;;;;5038900;28;20606;-77
2022/06/10 13:13:21;;;;;;;1.90;1.10;;;25.70;43.50;;;;;;5028722;28;20517;-78
2022/06/10 13:15:48;;;;;;;1.70;1.00;;;25.70;43.90;;;;;;5034913;28;20470;-78
2022/06/10 13:18:28;;;;;;;2.63;1.20;;;25.90;44.70;;;;;;5042241;28;20518;-78
2022/06/10 13:20:56;;;;;;;1.70;0.82;;;26.00;43.60;;;;;;5046395;28;20429;-76
2022/06/10 13:23:25;;;;;;;2.75;0.80;;;26.10;41.30;;;;;;5041664;28;20515;-78
2022/06/10 13:26:08;;;;;;;1.52;0.88;;;25.90;42.70;;;;;;5044270;28;20867;-78